Latest Weather Observations for Butlers Gorge

IDT60801

Issued at 4:35 am EST Wednesday 3 September 2014 (issued every 30 minutes, with the page automatically refreshed every 10 minutes)

About weather observations | Map of weather stations | Latest weather observations for TAS | Other Formats
Station Details ID: 096003 Name: BUTLERS GORGE Lat: -42.28 Lon: 146.28 Height: 667.0 m
Data from the previous 72 hours. | See also: Recent months at Butlers Gorge
Date/Time
EST
Temp
°C
App
Temp
°C
Dew
Point
Rel
Hum
%
Delta-T
°C
Wind Press
QNH
hPa
Press
MSL
hPa
Rain
since 9 am
mm
Dir
 
Spd
km/h
Gust
km/h
Spd
kts
Gust
kts
03/04:30am 1.7 -1.3 1.0 95 0.3 WSW 6 7 3 4 - - 1.0
03/04:00am 1.9 -0.7 0.9 93 0.4 W 4 7 2 4 - - 1.0
03/03:30am 2.8 -0.8 0.7 86 0.8 N 9 17 5 9 - - 1.0
03/03:00am 2.8 -0.8 0.9 87 0.8 N 9 13 5 7 - - 1.0
03/02:30am 2.5 -0.5 0.6 87 0.7 WNW 6 11 3 6 - - 1.0
03/02:00am 1.9 -1.7 0.6 91 0.5 WNW 9 13 5 7 - - 1.0
03/01:30am 1.1 -1.2 0.2 94 0.3 S 2 7 1 4 - - 1.0
03/01:00am 0.8 -1.5 0.1 95 0.3 SW 2 7 1 4 - - 1.0
03/12:30am 0.6 -2.2 -0.3 94 0.3 SW 4 11 2 6 - - 1.0
03/12:00am 1.1 -2.3 -0.4 90 0.6 NW 7 11 4 6 - - 1.0
 
Date/Time
EST
Temp
°C
App
Temp
°C
Dew
Point
Rel
Hum
%
Delta-T
°C
Wind Press
QNH
hPa
Press
MSL
hPa
Rain
since 9 am
mm
Dir
 
Spd
km/h
Gust
km/h
Spd
kts
Gust
kts
02/11:30pm 1.6 -1.4 0.6 93 0.4 W 6 9 3 5 - - 1.0
02/11:00pm 0.9 -1.1 0.2 95 0.3 CALM 0 0 0 0 - - 1.0
02/10:30pm 0.8 -2.0 -0.2 93 0.4 W 4 9 2 5 - - 1.0
02/10:00pm 1.6 -1.7 0.0 89 0.6 NW 7 9 4 5 - - 1.0
02/09:30pm 2.3 -1.1 -0.4 82 1.0 WNW 7 17 4 9 - - 1.0
02/09:00pm 2.2 -1.2 -0.4 83 1.0 W 7 13 4 7 - - 1.0
02/08:30pm 2.6 -1.2 -0.7 79 1.3 NW 9 17 5 9 - - 0.8
02/08:00pm 2.3 -1.0 -0.1 84 0.9 NNW 7 11 4 6 - - 0.8
02/07:30pm 2.3 -0.8 0.2 86 0.8 NNW 6 9 3 5 - - 0.8
02/07:00pm 2.7 -0.4 1.1 89 0.6 NW 7 13 4 7 - - 0.8
02/06:30pm 2.9 -0.1 0.6 85 0.9 WSW 6 13 3 7 - - 0.8
02/06:00pm 3.2 1.1 1.7 90 0.6 W 2 6 1 3 - - 0.8
02/05:30pm 3.6 0.8 2.0 89 0.7 W 6 15 3 8 - - 0.8
02/05:00pm 4.1 1.3 2.3 88 0.8 WNW 6 11 3 6 - - 0.6
02/04:30pm 4.2 0.9 2.4 88 0.8 WSW 9 13 5 7 - - 0.4
02/04:00pm 4.3 1.3 2.2 86 0.9 W 7 13 4 7 - - 0.4
02/03:30pm 5.6 1.8 1.5 75 1.7 WNW 11 20 6 11 - - 0.0
02/03:00pm 5.5 1.3 1.4 75 1.7 W 13 26 7 14 - - 0.0
02/02:30pm 6.0 2.0 0.6 68 2.2 WSW 11 32 6 17 - - 0.0
02/02:00pm 5.7 1.3 0.5 69 2.1 W 13 24 7 13 - - 0.0
02/01:30pm 6.4 2.4 0.3 65 2.5 WSW 11 20 6 11 - - 0.0
02/01:00pm 6.6 2.5 -0.4 61 2.8 SW 11 20 6 11 - - 0.0
02/12:30pm 6.4 1.4 -1.2 58 3.0 WSW 15 22 8 12 - - 0.0
02/12:00pm 5.7 0.3 -1.7 59 2.8 SW 17 30 9 16 - - 0.0
02/11:30am 5.5 0.5 -1.2 62 2.6 WSW 15 26 8 14 - - 0.0
02/11:00am 6.0 1.4 -0.7 62 2.6 WSW 13 24 7 13 - - 0.0
02/10:30am 5.3 1.5 -0.7 65 2.4 WSW 9 17 5 9 - - 0.0
02/10:00am 4.8 0.2 -1.2 65 2.3 W 13 24 7 13 - - 0.0
02/09:30am 4.7 0.6 -0.5 69 2.0 WSW 11 19 6 10 - - 0.0
02/09:00am 4.2 1.7 -1.0 69 2.0 ESE 2 6 1 3 - - 9.0
02/08:30am 2.0 0.1 0.5 90 0.6 CALM 0 0 0 0 - - 9.0
02/08:00am 0.4 -1.6 -0.4 94 0.3 CALM 0 0 0 0 - - 9.0
02/07:30am -1.2 -3.4 -1.8 96 0.2 CALM 0 0 0 0 - - 8.8
02/07:00am -2.3 -4.7 -2.8 96 0.1 CALM 0 0 0 0 - - 8.8
02/06:30am -2.5 -4.9 -3.0 96 0.1 CALM 0 0 0 0 - - 8.8
02/06:00am -1.9 -4.6 -2.5 96 0.1 ENE 2 6 1 3 - - 8.8
02/05:30am -2.2 -4.6 -2.9 95 0.1 CALM 0 6 0 3 - - 8.8
02/05:00am -1.5 -4.2 -2.1 96 0.1 NW 2 7 1 4 - - 8.8
02/04:30am -1.3 -3.9 -1.9 96 0.2 NNE 2 7 1 4 - - 8.8
02/04:00am -1.2 -3.4 -1.9 95 0.2 CALM 0 0 0 0 - - 8.8
02/03:30am -0.5 -2.7 -1.2 95 0.2 CALM 0 0 0 0 - - 8.8
02/03:00am 0.1 -2.3 -0.6 95 0.3 NE 2 11 1 6 - - 8.8
02/02:30am 1.7 -1.4 -0.1 88 0.7 S 6 9 3 5 - - 8.8
02/02:00am 2.3 -0.7 0.7 89 0.6 S 6 9 3 5 - - 8.8
02/01:30am 1.9 -1.0 1.5 97 0.2 SSW 6 13 3 7 - - 8.8
02/01:00am 0.2 -1.9 -0.5 95 0.3 CALM 0 0 0 0 - - 8.8
02/12:30am 0.6 -1.4 -0.3 94 0.3 CALM 0 0 0 0 - - 8.8
02/12:00am 2.0 -0.2 1.0 93 0.4 S 2 6 1 3 - - 8.8
 
Date/Time
EST
Temp
°C
App
Temp
°C
Dew
Point
Rel
Hum
%
Delta-T
°C
Wind Press
QNH
hPa
Press
MSL
hPa
Rain
since 9 am
mm
Dir
 
Spd
km/h
Gust
km/h
Spd
kts
Gust
kts
01/11:30pm 2.8 1.0 1.5 91 0.5 CALM 0 4 0 2 - - 8.8
01/11:00pm 3.9 1.1 1.8 86 0.9 SE 6 9 3 5 - - 8.8
01/10:30pm 3.7 0.7 1.9 88 0.7 SSW 7 11 4 6 - - 8.8
01/10:00pm 3.7 0.9 3.0 95 0.3 SW 7 13 4 7 - - 8.8
01/09:30pm 3.6 1.7 3.0 96 0.3 S 2 7 1 4 - - 8.8
01/09:00pm 3.3 1.7 2.4 94 0.4 CALM 0 0 0 0 - - 8.8
01/08:30pm 4.2 2.6 2.7 90 0.6 CALM 0 4 0 2 - - 8.8
01/08:00pm 4.2 2.4 3.5 95 0.3 SW 2 7 1 4 - - 8.6
01/07:30pm 4.3 1.7 3.3 93 0.4 W 6 9 3 5 - - 8.6
01/07:00pm 4.6 1.9 2.8 88 0.8 E 6 11 3 6 - - 8.6
01/06:30pm 5.1 2.4 2.8 85 1.0 W 6 9 3 5 - - 8.6
01/06:00pm 5.3 2.5 3.2 86 0.9 W 7 13 4 7 - - 8.6
01/05:30pm 5.5 2.4 3.8 89 0.7 SW 9 19 5 10 - - 8.6
01/05:00pm 5.5 2.4 3.8 89 0.7 WSW 9 17 5 9 - - 8.6
01/04:30pm 5.8 2.9 4.4 91 0.6 SW 9 19 5 10 - - 8.6
01/04:00pm 5.9 2.2 4.2 89 0.8 WSW 13 22 7 12 - - 8.6
01/03:30pm 6.5 3.7 5.1 91 0.6 WSW 9 17 5 9 - - 8.6
01/03:00pm 6.6 3.4 4.9 89 0.8 WSW 11 17 6 9 - - 8.4
01/02:30pm 7.2 4.0 5.3 88 0.9 WSW 11 24 6 13 - - 8.4
01/02:00pm 7.5 5.2 5.6 88 0.9 W 7 13 4 7 - - 8.2
01/01:30pm 7.5 5.8 6.1 91 0.7 WNW 4 9 2 5 - - 7.6
01/01:00pm 7.4 5.4 6.2 92 0.6 W 6 7 3 4 - - 6.8
01/12:30pm 7.5 6.6 6.1 91 0.7 CALM 0 2 0 1 - - 6.2
01/12:00pm 7.3 5.0 5.8 90 0.7 W 7 13 4 7 - - 5.2
01/11:30am 7.5 4.5 5.8 89 0.8 WSW 11 19 6 10 - - 3.4
01/11:00am 8.8 7.3 6.9 88 0.9 NW 4 7 2 4 - - 1.2
01/10:30am 9.2 6.6 6.3 82 1.4 NNW 9 20 5 11 - - 0.0
01/10:00am 9.8 6.0 6.0 77 1.8 NW 15 32 8 17 - - 0.0
01/09:30am 9.3 6.6 5.7 78 1.7 NNW 9 20 5 11 - - 0.0
01/09:00am 9.6 6.6 6.0 78 1.7 NW 11 24 6 13 - - 0.4
01/08:30am 9.1 5.6 5.5 78 1.7 NW 13 30 7 16 - - 0.4
01/08:00am 9.2 5.3 5.4 77 1.8 N 15 30 8 16 - - 0.2
01/07:30am 9.5 6.1 5.9 78 1.7 N 13 24 7 13 - - 0.2
01/07:00am 9.0 6.7 5.7 80 1.6 WNW 7 13 4 7 - - 0.0
01/06:30am 9.2 6.1 5.4 77 1.8 N 11 20 6 11 - - 0.0
01/06:00am 9.8 6.2 4.8 71 2.3 NNW 13 24 7 13 - - 0.0
01/05:30am 9.9 7.4 4.5 69 2.5 NNW 7 13 4 7 - - 0.0
01/05:00am 10.0 6.8 5.0 71 2.3 N 11 20 6 11 - - 0.0
01/04:30am 9.9 6.7 5.1 72 2.3 NW 11 24 6 13 - - 0.0
01/04:00am 10.7 6.9 4.0 63 3.1 NW 13 32 7 17 - - 0.0
01/03:30am 10.3 7.0 4.7 68 2.6 NW 11 20 6 11 - - 0.0
01/03:00am 10.6 6.9 4.5 66 2.8 NNW 13 24 7 13 - - 0.0
01/02:30am 11.0 7.4 4.9 66 2.9 NNW 13 22 7 12 - - 0.0
01/02:00am 11.0 6.6 4.7 65 3.0 NNW 17 30 9 16 - - 0.0
01/01:30am 10.5 7.2 4.6 67 2.8 N 11 24 6 13 - - 0.0
01/01:00am 10.0 6.7 4.8 70 2.4 N 11 22 6 12 - - 0.0
01/12:30am 9.2 7.3 4.8 74 2.0 NNE 4 13 2 7 - - 0.0
01/12:00am 9.5 7.1 5.1 74 2.1 N 7 19 4 10 - - 0.0
 
Date/Time
EST
Temp
°C
App
Temp
°C
Dew
Point
Rel
Hum
%
Delta-T
°C
Wind Press
QNH
hPa
Press
MSL
hPa
Rain
since 9 am
mm
Dir
 
Spd
km/h
Gust
km/h
Spd
kts
Gust
kts
31/11:30pm 7.4 5.0 5.2 86 1.0 SW 7 13 4 7 - - 0.0
31/11:00pm 5.3 3.6 3.8 90 0.7 S 2 7 1 4 - - 0.0
31/10:30pm 6.0 3.9 3.8 86 1.0 NNW 4 9 2 5 - - 0.0
31/10:00pm 7.5 5.5 4.6 82 1.3 WNW 4 11 2 6 - - 0.0
31/09:30pm 6.8 4.9 4.8 87 0.9 S 4 7 2 4 - - 0.0
31/09:00pm 7.0 4.7 4.7 85 1.0 S 6 9 3 5 - - 0.0
31/08:30pm 7.7 5.2 4.8 82 1.3 SSW 7 9 4 5 - - 0.0
31/08:00pm 8.6 6.3 4.6 76 1.8 SSW 6 7 3 4 - - 0.0
31/07:30pm 9.2 6.7 4.8 74 2.0 ENE 7 13 4 7 - - 0.0
31/07:00pm 10.0 6.4 5.0 71 2.3 N 13 19 7 10 - - 0.0
31/06:30pm 8.5 6.6 4.9 78 1.7 NW 4 9 2 5 - - 0.0
31/06:00pm 9.6 7.4 5.2 74 2.1 WSW 6 9 3 5 - - 0.0
31/05:30pm 10.7 8.4 5.0 68 2.7 W 6 9 3 5 - - 0.0
31/05:00pm 11.5 9.1 5.4 66 2.9 W 7 17 4 9 - - 0.0
31/04:30pm 12.0 9.2 5.2 63 3.3 WNW 9 17 5 9 - - 0.0
31/04:00pm 12.5 9.4 5.7 63 3.3 NNW 11 24 6 13 - - 0.0
31/03:30pm 13.3 9.8 5.5 59 3.8 N 13 24 7 13 - - 0.0
31/03:00pm 13.1 10.1 5.8 61 3.6 NNW 11 19 6 10 - - 0.0
31/02:30pm 13.1 9.6 5.3 59 3.8 NNW 13 20 7 11 - - 0.0
31/02:00pm 13.2 9.7 5.4 59 3.8 NNW 13 20 7 11 - - 0.0
31/01:30pm 12.5 9.2 4.7 59 3.7 NNW 11 20 6 11 - - 0.0
31/01:00pm 12.2 9.4 5.1 62 3.4 NNW 9 17 5 9 - - 0.0
31/12:30pm 11.6 9.3 5.7 67 2.8 W 7 11 4 6 - - 0.0
31/12:00pm 11.8 8.9 4.5 61 3.4 NW 9 19 5 10 - - 0.0
31/11:30am 11.3 8.4 4.7 64 3.1 W 9 15 5 8 - - 0.0
31/11:00am 11.4 8.8 4.4 62 3.3 W 7 13 4 7 - - 0.0
31/10:30am 11.9 9.0 4.6 61 3.4 WSW 9 15 5 8 - - 0.0
31/10:00am 11.3 8.0 4.3 62 3.3 W 11 17 6 9 - - 0.0
31/09:30am 10.9 7.2 4.4 64 3.0 W 13 19 7 10 - - 0.0
31/09:00am 9.8 6.8 4.2 68 2.6 W 9 15 5 8 - - 0.2
31/08:30am 9.4 6.4 4.2 70 2.4 NNW 9 22 5 12 - - 0.2
31/08:00am 6.3 3.3 4.0 85 1.0 W 9 17 5 9 - - 0.2
31/07:30am 4.0 1.1 2.5 90 0.6 W 7 11 4 6 - - 0.0
31/07:00am 2.3 -0.7 1.9 97 0.2 W 7 15 4 8 - - 0.0
31/06:30am 0.2 -3.2 -0.4 96 0.2 SW 7 9 4 5 - - 0.0
31/06:00am 0.7 -2.6 0.3 97 0.2 WSW 7 11 4 6 - - 0.0
31/05:30am 0.5 -2.8 -0.1 96 0.2 WSW 7 9 4 5 - - 0.0
31/05:00am 0.3 -2.9 -0.4 95 0.3 WSW 6 7 3 4 - - 0.0

Other Formats:

Comma delimited format used in spreadsheet applications
http://www.bom.gov.au/fwo/IDT60801/IDT60801.94959.axf

JavaScript Object Notation format (JSON) in row-major order
http://www.bom.gov.au/fwo/IDT60801/IDT60801.94959.json